Houn Maru — JG5489 — position and weather

sailwx.info

Track history (hours):
 
Tides and Currents Weather Stations Pressure Air Temp Water Temp Dewpoint Dewpoint Depression Visibility Wind Speed Wind Dir Waves Ship Positions

Houn Maru

Last reported at 2017-Dec-11 09:15 UTC. Time now 2017-Dec-13 13:18 UTC.
Position N 34°24' E 134°18'.

Length 91 m; draft 6 m.

Type: Tanker. MMSI: 431101172.

Date/timePositionNaut miles runAvg speedWind from/ knotsBaromVisibWave heightAir tempDewpointWater temp
2017-Dec-11 09:15N 34°24' E 134°18'410.3
2017-Dec-11 08:52N 34°25' E 134°23'410.8
2017-Dec-11 08:30N 34°27' E 134°27'611.4
2017-Dec-11 08:00N 34°29' E 134°33'611.2
2017-Dec-11 07:30N 34°31' E 134°40'611.4
2017-Dec-11 07:00N 34°33' E 134°46'612.6
2017-Dec-11 06:30N 34°35' E 134°53'612.5
2017-Dec-11 06:01N 34°38' E 135°00'612.5
2017-Dec-11 05:30N 34°34' E 135°06'612.1
2017-Dec-11 05:00N 34°28' E 135°10'611.0
2017-Dec-11 04:30N 34°24' E 135°13'2 3.5
2017-Dec-11 03:59N 34°25' E 135°14'0 0.0
2017-Dec-11 03:29N 34°25' E 135°14'0 0.0
2017-Dec-11 02:59N 34°25' E 135°14'0 0.0
2017-Dec-11 02:29N 34°25' E 135°14'0 0.0
2017-Dec-11 01:59N 34°25' E 135°14'0 0.0
2017-Dec-11 01:29N 34°25' E 135°14'0 0.0
2017-Dec-11 00:59N 34°25' E 135°14'0 0.0
2017-Dec-11 00:29N 34°25' E 135°14'0 0.5
2017-Dec-11 00:00N 34°25' E 135°14'3 6.2
2017-Dec-10 23:30N 34°26' E 135°11'611.4
2017-Dec-10 23:00N 34°29' E 135°16'4 8.5
2017-Dec-10 22:30N 34°31' E 135°21'0 0.1
2017-Dec-10 21:58N 34°31' E 135°21'0 0.0
2017-Dec-10 21:28N 34°31' E 135°21'0 0.0
2017-Dec-10 20:59N 34°31' E 135°21'0 0.0
2017-Dec-10 20:28N 34°31' E 135°21'0 0.0
2017-Dec-10 19:58N 34°31' E 135°21'0 0.0
2017-Dec-10 19:28N 34°31' E 135°21'0 0.0
2017-Dec-10 18:58N 34°31' E 135°21'0 0.0
2017-Dec-10 18:28N 34°31' E 135°21'0 0.0
2017-Dec-10 17:58N 34°31' E 135°21'0 0.0
2017-Dec-10 17:28N 34°31' E 135°21'0 0.0
2017-Dec-10 16:58N 34°31' E 135°21'0 0.0
2017-Dec-10 16:28N 34°31' E 135°21'0 0.0
2017-Dec-10 15:58N 34°31' E 135°21'0 0.0
2017-Dec-10 15:28N 34°31' E 135°21'0 0.0
2017-Dec-10 14:58N 34°31' E 135°21'0 0.0
2017-Dec-10 14:28N 34°31' E 135°21'0 0.0
2017-Dec-10 13:58N 34°31' E 135°21'0 0.0
2017-Dec-10 13:29N 34°31' E 135°21'0 0.0
2017-Dec-10 12:58N 34°31' E 135°21'0 0.0
2017-Dec-10 12:28N 34°31' E 135°21'0 0.0
2017-Dec-10 11:58N 34°31' E 135°21'0 0.0
2017-Dec-10 11:28N 34°31' E 135°21'0 0.0
2017-Dec-10 10:58N 34°31' E 135°21'0 0.0
2017-Dec-10 10:28N 34°31' E 135°21'0 0.0
2017-Dec-10 09:58N 34°31' E 135°21'0 0.1
2017-Dec-10 09:28N 34°31' E 135°21'1 1.7
2017-Dec-10 09:00N 34°32' E 135°21'4 7.3
2017-Dec-10 08:30N 34°33' E 135°26'0 0.0
2017-Dec-10 07:57N 34°33' E 135°26'0 0.0
2017-Dec-10 07:30N 34°33' E 135°26'0 0.0
2017-Dec-10 07:00N 34°33' E 135°26'0 0.0
2017-Dec-10 06:30N 34°33' E 135°26'0 0.0
2017-Dec-10 06:00N 34°33' E 135°26'0 0.0
2017-Dec-10 05:30N 34°33' E 135°26'0 0.0
2017-Dec-10 05:00N 34°33' E 135°26'0 0.0
2017-Dec-10 04:30N 34°33' E 135°26'0 0.0
2017-Dec-10 04:00N 34°33' E 135°26'0 0.0
2017-Dec-10 03:30N 34°33' E 135°26'0 0.0
2017-Dec-10 03:00N 34°33' E 135°26'0 0.0
2017-Dec-10 02:30N 34°33' E 135°26'0 0.0
2017-Dec-10 02:00N 34°33' E 135°26'0 0.0
2017-Dec-10 01:30N 34°33' E 135°26'0 0.0
2017-Dec-10 01:00N 34°33' E 135°26'0 0.0
2017-Dec-10 00:30N 34°33' E 135°26'0 0.0
2017-Dec-10 00:00N 34°33' E 135°26'0 0.0
2017-Dec-09 23:30N 34°33' E 135°26'0 0.0
2017-Dec-09 23:00N 34°33' E 135°26'2 4.1
2017-Dec-09 22:30N 34°34' E 135°24'2 4.9
2017-Dec-09 22:00N 34°35' E 135°27'0 0.5
2017-Dec-09 21:30N 34°35' E 135°27'0 0.0
2017-Dec-09 21:00N 34°35' E 135°27'0 0.0
2017-Dec-09 20:30N 34°35' E 135°27'0 0.0
2017-Dec-09 20:00N 34°35' E 135°27'0 0.0
2017-Dec-09 19:30N 34°35' E 135°27'0 0.0
2017-Dec-09 19:00N 34°35' E 135°27'0 0.0
2017-Dec-09 18:30N 34°35' E 135°27'0 0.0
2017-Dec-09 18:00N 34°35' E 135°27'0 0.0
2017-Dec-09 17:30N 34°35' E 135°27'0 0.0
2017-Dec-09 17:00N 34°35' E 135°27'0 0.0
2017-Dec-09 16:30N 34°35' E 135°27'0 0.0
2017-Dec-09 16:00N 34°35' E 135°27'0 0.0
2017-Dec-09 15:30N 34°35' E 135°27'0 0.0
2017-Dec-09 15:00N 34°35' E 135°27'0 0.0
2017-Dec-09 14:30N 34°35' E 135°27'0 0.0
2017-Dec-09 14:00N 34°35' E 135°27'0 0.0
2017-Dec-09 13:30N 34°35' E 135°27'0 0.0
2017-Dec-09 13:00N 34°35' E 135°27'0 0.0
2017-Dec-09 12:30N 34°35' E 135°27'0 0.0
2017-Dec-09 12:00N 34°35' E 135°27'0 0.0
2017-Dec-09 11:30N 34°35' E 135°27'0 0.0
2017-Dec-09 11:00N 34°35' E 135°27'0 0.0
2017-Dec-09 10:30N 34°35' E 135°27'0 0.0
2017-Dec-09 10:00N 34°35' E 135°27'0 0.0
2017-Dec-09 09:24N 34°35' E 135°27'0 0.0
2017-Dec-09 09:00N 34°35' E 135°27'0 0.0
2017-Dec-09 08:30N 34°35' E 135°27'0 0.0
2017-Dec-09 08:00N 34°35' E 135°27'0 0.0
2017-Dec-09 07:30N 34°35' E 135°27'0 0.0
2017-Dec-09 07:00N 34°35' E 135°27'0 0.0
2017-Dec-09 06:30N 34°35' E 135°27'0 0.5
2017-Dec-09 06:00N 34°35' E 135°27'5 9.9
2017-Dec-09 05:30N 34°35' E 135°21'713.0
2017-Dec-09 05:00N 34°30' E 135°16'612.3
2017-Dec-09 04:30N 34°25' E 135°11'3 5.2
2017-Dec-09 04:00N 34°25' E 135°14'0 0.0
2017-Dec-09 03:30N 34°25' E 135°14'0 0.0
2017-Dec-09 03:00N 34°25' E 135°14'0 0.0
2017-Dec-09 02:30N 34°25' E 135°14'0 0.0
2017-Dec-09 02:00N 34°25' E 135°14'0 0.0
2017-Dec-09 01:30N 34°25' E 135°14'0 0.0
2017-Dec-09 00:57N 34°25' E 135°14'0 0.0
2017-Dec-09 00:30N 34°25' E 135°14'0 0.9
2017-Dec-09 00:00N 34°25' E 135°14'2 4.0
2017-Dec-08 23:28N 34°23' E 135°13'0 0.1
2017-Dec-08 22:58N 34°23' E 135°13'0 0.0
2017-Dec-08 22:28N 34°23' E 135°13'0 0.0
2017-Dec-08 21:55N 34°23' E 135°13'0 0.0
2017-Dec-08 21:28N 34°23' E 135°13'0 0.0
2017-Dec-08 20:55N 34°23' E 135°13'0 0.0
2017-Dec-08 20:28N 34°23' E 135°13'0 0.0
2017-Dec-08 19:58N 34°23' E 135°13'0 0.0
2017-Dec-08 19:28N 34°23' E 135°13'0 0.0
2017-Dec-08 18:58N 34°23' E 135°13'0 0.0
2017-Dec-08 18:28N 34°23' E 135°13'0 0.1
2017-Dec-08 17:55N 34°23' E 135°13'0 0.0
2017-Dec-08 17:28N 34°23' E 135°13'0 0.0
2017-Dec-08 16:52N 34°23' E 135°13'0 0.0
2017-Dec-08 16:25N 34°23' E 135°13'0 0.1
2017-Dec-08 15:58N 34°23' E 135°13'0 0.0
2017-Dec-08 15:28N 34°23' E 135°13'0 0.0
2017-Dec-08 14:58N 34°23' E 135°13'0 0.0
2017-Dec-08 14:25N 34°23' E 135°13'0 0.1
2017-Dec-08 13:55N 34°23' E 135°13'0 0.0
2017-Dec-08 13:25N 34°23' E 135°13'0 0.1
2017-Dec-08 12:58N 34°23' E 135°13'0 0.0
2017-Dec-08 12:28N 34°23' E 135°13'0 0.0
2017-Dec-08 11:58N 34°23' E 135°13'0 0.0
2017-Dec-08 11:25N 34°23' E 135°13'0 0.0
2017-Dec-08 10:58N 34°23' E 135°13'0 0.0
2017-Dec-08 10:28N 34°23' E 135°13'0 0.0
2017-Dec-08 09:58N 34°23' E 135°13'0 0.1
2017-Dec-08 09:28N 34°23' E 135°13'0 0.1
2017-Dec-08 08:58N 34°23' E 135°13'0 0.1
2017-Dec-08 08:28N 34°23' E 135°13'0 0.0
2017-Dec-08 07:58N 34°23' E 135°13'0 0.0
2017-Dec-08 07:28N 34°23' E 135°13'0 0.0
2017-Dec-08 06:58N 34°23' E 135°13'0 0.0
2017-Dec-08 06:28N 34°23' E 135°13'0 0.0
2017-Dec-08 05:58N 34°23' E 135°13'0 0.0
2017-Dec-08 05:28N 34°23' E 135°13'0 0.0
2017-Dec-08 04:58N 34°23' E 135°13'0 0.0
2017-Dec-08 04:28N 34°23' E 135°13'0 0.0
2017-Dec-08 03:58N 34°23' E 135°13'0 0.0
2017-Dec-08 03:28N 34°23' E 135°13'0 0.0
2017-Dec-08 02:58N 34°23' E 135°13'0 0.0
2017-Dec-08 02:28N 34°23' E 135°13'0 0.0
2017-Dec-08 01:58N 34°23' E 135°13'0 0.0
2017-Dec-08 01:28N 34°23' E 135°13'0 0.0
2017-Dec-08 00:58N 34°23' E 135°13'0 0.0
2017-Dec-08 00:28N 34°23' E 135°13'0 0.0
2017-Dec-07 23:58N 34°23' E 135°13'0 0.0
2017-Dec-07 23:28N 34°23' E 135°13'0 0.1
2017-Dec-07 22:58N 34°23' E 135°13'0 0.0
2017-Dec-07 22:28N 34°23' E 135°13'0 0.0
2017-Dec-07 21:55N 34°23' E 135°13'0 0.0
2017-Dec-07 21:28N 34°23' E 135°13'0 0.1
2017-Dec-07 20:58N 34°23' E 135°13'0 0.0
2017-Dec-07 20:25N 34°23' E 135°13'0 0.0
2017-Dec-07 19:58N 34°23' E 135°13'0 0.0
2017-Dec-07 19:28N 34°23' E 135°13'0 0.7
2017-Dec-07 19:01N 34°23' E 135°12'611.4
2017-Dec-07 18:30N 34°28' E 135°08'612.9
2017-Dec-07 18:01N 34°33' E 135°05'612.5
2017-Dec-07 17:30N 34°37' E 134°58'612.8
2017-Dec-07 17:00N 34°34' E 134°51'612.2
2017-Dec-07 16:30N 34°32' E 134°44'612.0
2017-Dec-07 16:00N 34°29' E 134°38'612.0
2017-Dec-07 15:30N 34°27' E 134°31'911.9
2017-Dec-07 14:43N 34°24' E 134°20'311.7
2017-Dec-07 14:26N 34°24' E 134°16'  
2017-Dec-04 08:45N 34°26' E 134°24'312.8
2017-Dec-04 08:30N 34°27' E 134°27'612.6
2017-Dec-04 08:00N 34°29' E 134°34'612.7
2017-Dec-04 07:30N 34°31' E 134°42'612.6
2017-Dec-04 07:00N 34°34' E 134°49'611.4
2017-Dec-04 06:30N 34°36' E 134°55'510.2
2017-Dec-04 06:00N 34°37' E 135°01'4 8.8
2017-Dec-04 05:30N 34°35' E 135°05'612.1
2017-Dec-04 05:00N 34°29' E 135°08'612.2
2017-Dec-04 04:30N 34°24' E 135°12'2 4.6
2017-Dec-04 04:00N 34°25' E 135°14'0 0.0
2017-Dec-04 03:30N 34°25' E 135°14'0 0.0
2017-Dec-04 03:00N 34°25' E 135°14'0 0.0
2017-Dec-04 02:30N 34°25' E 135°14'0 0.0
2017-Dec-04 02:00N 34°25' E 135°14'0 0.0
2017-Dec-04 01:27N 34°25' E 135°14'0 0.0
2017-Dec-04 00:57N 34°25' E 135°14'0 0.0
2017-Dec-04 00:30N 34°25' E 135°14'0 0.4
2017-Dec-04 00:00N 34°25' E 135°14'3 6.0
2017-Dec-03 23:30N 34°25' E 135°11'611.2
2017-Dec-03 23:00N 34°29' E 135°16'5 9.2
2017-Dec-03 22:30N 34°31' E 135°21'0 0.2
2017-Dec-03 21:59N 34°31' E 135°21'0 0.0
2017-Dec-03 21:29N 34°31' E 135°21'0 0.0
2017-Dec-03 20:59N 34°31' E 135°21'0 0.0
2017-Dec-03 20:29N 34°31' E 135°21'0 0.0
2017-Dec-03 19:59N 34°31' E 135°21'0 0.0
2017-Dec-03 19:29N 34°31' E 135°21'0 0.0
2017-Dec-03 18:59N 34°31' E 135°21'0 0.0
2017-Dec-03 18:29N 34°31' E 135°21'0 0.0
2017-Dec-03 17:59N 34°31' E 135°21'0 0.1
2017-Dec-03 17:29N 34°31' E 135°21'0 0.1
2017-Dec-03 16:59N 34°31' E 135°21'0 0.0
2017-Dec-03 16:29N 34°31' E 135°21'0 0.0
2017-Dec-03 15:59N 34°31' E 135°21'0 0.0
2017-Dec-03 15:29N 34°31' E 135°21'0 0.0
2017-Dec-03 14:59N 34°31' E 135°21'0 0.1
2017-Dec-03 14:29N 34°31' E 135°21'0 0.0
2017-Dec-03 13:59N 34°31' E 135°21'0 0.0
2017-Dec-03 13:29N 34°31' E 135°21'0 0.0
2017-Dec-03 12:59N 34°31' E 135°21'0 0.0
2017-Dec-03 12:29N 34°31' E 135°21'0 0.0
2017-Dec-03 11:59N 34°31' E 135°21'0 0.0
2017-Dec-03 11:29N 34°31' E 135°21'0 0.0
2017-Dec-03 10:59N 34°31' E 135°21'0 0.0
2017-Dec-03 10:29N 34°31' E 135°21'0 0.0
2017-Dec-03 09:59N 34°31' E 135°21'0 0.0
2017-Dec-03 09:29N 34°31' E 135°21'0 0.3
2017-Dec-03 09:00N 34°31' E 135°21'4 8.5
2017-Dec-03 08:30N 34°33' E 135°25'0 0.5
2017-Dec-03 08:00N 34°33' E 135°26'0 0.0
2017-Dec-03 07:30N 34°33' E 135°26'0 0.0
2017-Dec-03 07:00N 34°33' E 135°26'0 0.0
2017-Dec-03 06:30N 34°33' E 135°26'0 0.0
2017-Dec-03 06:00N 34°33' E 135°26'0 0.0
2017-Dec-03 05:30N 34°33' E 135°26'0 0.0
2017-Dec-03 05:00N 34°33' E 135°26'0 0.0
2017-Dec-03 04:30N 34°33' E 135°26'0 0.0
2017-Dec-03 04:00N 34°33' E 135°26'0 0.0
2017-Dec-03 03:30N 34°33' E 135°26'0 0.0
2017-Dec-03 03:00N 34°33' E 135°26'0 0.0
2017-Dec-03 02:30N 34°33' E 135°26'0 0.0
2017-Dec-03 02:00N 34°33' E 135°26'0 0.0
2017-Dec-03 01:30N 34°33' E 135°26'0 0.0
2017-Dec-03 01:00N 34°33' E 135°26'0 0.0
2017-Dec-03 00:30N 34°33' E 135°26'0 0.0
2017-Dec-03 00:00N 34°33' E 135°26'0 0.0
2017-Dec-02 23:30N 34°33' E 135°26'0 0.0
2017-Dec-02 23:00N 34°33' E 135°26'3 5.4
2017-Dec-02 22:30N 34°33' E 135°22'2 3.6
2017-Dec-02 21:58N 34°31' E 135°21'0 0.0
2017-Dec-02 21:29N 34°31' E 135°21'0 0.0
2017-Dec-02 20:59N 34°31' E 135°21'0 0.0
2017-Dec-02 20:29N 34°31' E 135°21'0 0.0
2017-Dec-02 19:59N 34°31' E 135°21'0 0.0
2017-Dec-02 19:29N 34°31' E 135°21'0 0.0
2017-Dec-02 18:59N 34°31' E 135°21'0 0.0
2017-Dec-02 18:29N 34°31' E 135°21'0 0.1
2017-Dec-02 17:59N 34°31' E 135°21'0 0.0
2017-Dec-02 17:28N 34°31' E 135°21'0 0.0
2017-Dec-02 16:59N 34°31' E 135°21'0 0.0
2017-Dec-02 16:29N 34°31' E 135°21'0 0.0
2017-Dec-02 15:59N 34°31' E 135°21'0 0.0
2017-Dec-02 15:28N 34°31' E 135°21'0 0.0
2017-Dec-02 14:59N 34°31' E 135°21'0 0.0
2017-Dec-02 14:29N 34°31' E 135°21'0 0.0
2017-Dec-02 13:59N 34°31' E 135°21'0 0.0
2017-Dec-02 13:29N 34°31' E 135°21'0 0.0
2017-Dec-02 12:59N 34°31' E 135°21'0 0.0
2017-Dec-02 12:26N 34°31' E 135°21'0 0.1
2017-Dec-02 11:58N 34°31' E 135°21'0 0.0
2017-Dec-02 11:28N 34°31' E 135°21'0 0.0
2017-Dec-02 10:59N 34°31' E 135°21'0 0.0
2017-Dec-02 10:29N 34°31' E 135°21'0 0.3
2017-Dec-02 10:01N 34°31' E 135°21'611.8
2017-Dec-02 09:30N 34°28' E 135°15'4 8.6
2017-Dec-02 09:00N 34°24' E 135°13'2 3.4
2017-Dec-02 08:30N 34°25' E 135°14'0 0.0
2017-Dec-02 07:57N 34°25' E 135°14'0 0.0
2017-Dec-02 07:30N 34°25' E 135°14'0 0.0
2017-Dec-02 07:00N 34°25' E 135°14'0 0.0
2017-Dec-02 06:30N 34°25' E 135°14'0 0.0
2017-Dec-02 05:57N 34°25' E 135°14'0 0.0
2017-Dec-02 05:30N 34°25' E 135°14'0 0.0
2017-Dec-02 04:57N 34°25' E 135°14'1 1.3
2017-Dec-02 04:30N 34°25' E 135°14'2 3.5
2017-Dec-02 04:00N 34°23' E 135°13'0 0.0
2017-Dec-02 03:30N 34°23' E 135°13'0 0.0
2017-Dec-02 03:00N 34°23' E 135°13'0 0.0
2017-Dec-02 02:30N 34°23' E 135°13'0 0.0
2017-Dec-02 02:00N 34°23' E 135°13'0 0.0
2017-Dec-02 01:30N 34°23' E 135°13'0 0.0
2017-Dec-02 01:00N 34°23' E 135°13'0 0.0
2017-Dec-02 00:30N 34°23' E 135°13'0 0.1
2017-Dec-02 00:00N 34°23' E 135°13'0 0.0
2017-Dec-01 23:27N 34°23' E 135°13'0 0.0
2017-Dec-01 23:00N 34°23' E 135°13'0 0.0
2017-Dec-01 22:27N 34°23' E 135°13'0 0.0
2017-Dec-01 22:00N 34°23' E 135°13'0 0.0
2017-Dec-01 21:30N 34°23' E 135°13'0 0.0
2017-Dec-01 21:00N 34°23' E 135°13'0 0.0
2017-Dec-01 20:30N 34°23' E 135°13'0 0.0
2017-Dec-01 20:00N 34°23' E 135°13'0 0.0
2017-Dec-01 19:30N 34°23' E 135°13'0 0.0
2017-Dec-01 19:00N 34°23' E 135°13'0 0.0
2017-Dec-01 18:27N 34°23' E 135°13'0 0.0
2017-Dec-01 17:57N 34°23' E 135°13'0 0.0
2017-Dec-01 17:30N 34°23' E 135°13'0 0.1
2017-Dec-01 17:00N 34°23' E 135°13'0 0.0
2017-Dec-01 16:30N 34°23' E 135°13'0 0.0
2017-Dec-01 16:00N 34°23' E 135°13'0 0.0
2017-Dec-01 15:30N 34°23' E 135°13'0 0.0
2017-Dec-01 15:00N 34°23' E 135°13'0 0.0
2017-Dec-01 14:30N 34°23' E 135°13'0 0.0
2017-Dec-01 14:00N 34°23' E 135°13'0 0.0
2017-Dec-01 13:30N 34°23' E 135°13'0 0.0
2017-Dec-01 13:00N 34°23' E 135°13'1 2.3
2017-Dec-01 12:30N 34°24' E 135°12'611.9
2017-Dec-01 12:00N 34°29' E 135°07'612.0
2017-Dec-01 11:30N 34°34' E 135°04'5 9.8
2017-Dec-01 11:00N 34°37' E 134°59'510.9
2017-Dec-01 10:30N 34°34' E 134°53'510.4
2017-Dec-01 10:00N 34°32' E 134°48'611.2
2017-Dec-01 09:30N 34°29' E 134°41'  
Track history (hours):
 
Tides and Currents Weather Stations Pressure Air Temp Water Temp Dewpoint Dewpoint Depression Visibility Wind Speed Wind Dir Waves Ship Positions

Houn Maru

Last reported at 2017-Dec-11 09:15 UTC. Time now 2017-Dec-13 13:18 UTC.
Position N 34°24' E 134°18'.

Length 91 m; draft 6 m.

Type: Tanker. MMSI: 431101172.

Date/timePositionNaut miles runAvg speedWind from/ knotsBaromVisibWave heightAir tempDewpointWater temp
2017-Dec-11 09:15N 34°24' E 134°18'410.3
2017-Dec-11 08:52N 34°25' E 134°23'410.8
2017-Dec-11 08:30N 34°27' E 134°27'611.4
2017-Dec-11 08:00N 34°29' E 134°33'611.2
2017-Dec-11 07:30N 34°31' E 134°40'611.4
2017-Dec-11 07:00N 34°33' E 134°46'612.6
2017-Dec-11 06:30N 34°35' E 134°53'612.5
2017-Dec-11 06:01N 34°38' E 135°00'612.5
2017-Dec-11 05:30N 34°34' E 135°06'612.1
2017-Dec-11 05:00N 34°28' E 135°10'611.0
2017-Dec-11 04:30N 34°24' E 135°13'2 3.5
2017-Dec-11 03:59N 34°25' E 135°14'0 0.0
2017-Dec-11 03:29N 34°25' E 135°14'0 0.0
2017-Dec-11 02:59N 34°25' E 135°14'0 0.0
2017-Dec-11 02:29N 34°25' E 135°14'0 0.0
2017-Dec-11 01:59N 34°25' E 135°14'0 0.0
2017-Dec-11 01:29N 34°25' E 135°14'0 0.0
2017-Dec-11 00:59N 34°25' E 135°14'0 0.0
2017-Dec-11 00:29N 34°25' E 135°14'0 0.5
2017-Dec-11 00:00N 34°25' E 135°14'3 6.2
2017-Dec-10 23:30N 34°26' E 135°11'611.4
2017-Dec-10 23:00N 34°29' E 135°16'4 8.5
2017-Dec-10 22:30N 34°31' E 135°21'0 0.1
2017-Dec-10 21:58N 34°31' E 135°21'0 0.0
2017-Dec-10 21:28N 34°31' E 135°21'0 0.0
2017-Dec-10 20:59N 34°31' E 135°21'0 0.0
2017-Dec-10 20:28N 34°31' E 135°21'0 0.0
2017-Dec-10 19:58N 34°31' E 135°21'0 0.0
2017-Dec-10 19:28N 34°31' E 135°21'0 0.0
2017-Dec-10 18:58N 34°31' E 135°21'0 0.0
2017-Dec-10 18:28N 34°31' E 135°21'0 0.0
2017-Dec-10 17:58N 34°31' E 135°21'0 0.0
2017-Dec-10 17:28N 34°31' E 135°21'0 0.0
2017-Dec-10 16:58N 34°31' E 135°21'0 0.0
2017-Dec-10 16:28N 34°31' E 135°21'0 0.0
2017-Dec-10 15:58N 34°31' E 135°21'0 0.0
2017-Dec-10 15:28N 34°31' E 135°21'0 0.0
2017-Dec-10 14:58N 34°31' E 135°21'0 0.0
2017-Dec-10 14:28N 34°31' E 135°21'0 0.0
2017-Dec-10 13:58N 34°31' E 135°21'0 0.0
2017-Dec-10 13:29N 34°31' E 135°21'0 0.0
2017-Dec-10 12:58N 34°31' E 135°21'0 0.0
2017-Dec-10 12:28N 34°31' E 135°21'0 0.0
2017-Dec-10 11:58N 34°31' E 135°21'0 0.0
2017-Dec-10 11:28N 34°31' E 135°21'0 0.0
2017-Dec-10 10:58N 34°31' E 135°21'0 0.0
2017-Dec-10 10:28N 34°31' E 135°21'0 0.0
2017-Dec-10 09:58N 34°31' E 135°21'0 0.1
2017-Dec-10 09:28N 34°31' E 135°21'1 1.7
2017-Dec-10 09:00N 34°32' E 135°21'4 7.3
2017-Dec-10 08:30N 34°33' E 135°26'0 0.0
2017-Dec-10 07:57N 34°33' E 135°26'0 0.0
2017-Dec-10 07:30N 34°33' E 135°26'0 0.0
2017-Dec-10 07:00N 34°33' E 135°26'0 0.0
2017-Dec-10 06:30N 34°33' E 135°26'0 0.0
2017-Dec-10 06:00N 34°33' E 135°26'0 0.0
2017-Dec-10 05:30N 34°33' E 135°26'0 0.0
2017-Dec-10 05:00N 34°33' E 135°26'0 0.0
2017-Dec-10 04:30N 34°33' E 135°26'0 0.0
2017-Dec-10 04:00N 34°33' E 135°26'0 0.0
2017-Dec-10 03:30N 34°33' E 135°26'0 0.0
2017-Dec-10 03:00N 34°33' E 135°26'0 0.0
2017-Dec-10 02:30N 34°33' E 135°26'0 0.0
2017-Dec-10 02:00N 34°33' E 135°26'0 0.0
2017-Dec-10 01:30N 34°33' E 135°26'0 0.0
2017-Dec-10 01:00N 34°33' E 135°26'0 0.0
2017-Dec-10 00:30N 34°33' E 135°26'0 0.0
2017-Dec-10 00:00N 34°33' E 135°26'0 0.0
2017-Dec-09 23:30N 34°33' E 135°26'0 0.0
2017-Dec-09 23:00N 34°33' E 135°26'2 4.1
2017-Dec-09 22:30N 34°34' E 135°24'2 4.9
2017-Dec-09 22:00N 34°35' E 135°27'0 0.5
2017-Dec-09 21:30N 34°35' E 135°27'0 0.0
2017-Dec-09 21:00N 34°35' E 135°27'0 0.0
2017-Dec-09 20:30N 34°35' E 135°27'0 0.0
2017-Dec-09 20:00N 34°35' E 135°27'0 0.0
2017-Dec-09 19:30N 34°35' E 135°27'0 0.0
2017-Dec-09 19:00N 34°35' E 135°27'0 0.0
2017-Dec-09 18:30N 34°35' E 135°27'0 0.0
2017-Dec-09 18:00N 34°35' E 135°27'0 0.0
2017-Dec-09 17:30N 34°35' E 135°27'0 0.0
2017-Dec-09 17:00N 34°35' E 135°27'0 0.0
2017-Dec-09 16:30N 34°35' E 135°27'0 0.0
2017-Dec-09 16:00N 34°35' E 135°27'0 0.0
2017-Dec-09 15:30N 34°35' E 135°27'0 0.0
2017-Dec-09 15:00N 34°35' E 135°27'0 0.0
2017-Dec-09 14:30N 34°35' E 135°27'0 0.0
2017-Dec-09 14:00N 34°35' E 135°27'0 0.0
2017-Dec-09 13:30N 34°35' E 135°27'0 0.0
2017-Dec-09 13:00N 34°35' E 135°27'0 0.0
2017-Dec-09 12:30N 34°35' E 135°27'0 0.0
2017-Dec-09 12:00N 34°35' E 135°27'0 0.0
2017-Dec-09 11:30N 34°35' E 135°27'0 0.0
2017-Dec-09 11:00N 34°35' E 135°27'0 0.0
2017-Dec-09 10:30N 34°35' E 135°27'0 0.0
2017-Dec-09 10:00N 34°35' E 135°27'0 0.0
2017-Dec-09 09:24N 34°35' E 135°27'0 0.0
2017-Dec-09 09:00N 34°35' E 135°27'0 0.0
2017-Dec-09 08:30N 34°35' E 135°27'0 0.0
2017-Dec-09 08:00N 34°35' E 135°27'0 0.0
2017-Dec-09 07:30N 34°35' E 135°27'0 0.0
2017-Dec-09 07:00N 34°35' E 135°27'0 0.0
2017-Dec-09 06:30N 34°35' E 135°27'0 0.5
2017-Dec-09 06:00N 34°35' E 135°27'5 9.9
2017-Dec-09 05:30N 34°35' E 135°21'713.0
2017-Dec-09 05:00N 34°30' E 135°16'612.3
2017-Dec-09 04:30N 34°25' E 135°11'3 5.2
2017-Dec-09 04:00N 34°25' E 135°14'0 0.0
2017-Dec-09 03:30N 34°25' E 135°14'0 0.0
2017-Dec-09 03:00N 34°25' E 135°14'0 0.0
2017-Dec-09 02:30N 34°25' E 135°14'0 0.0
2017-Dec-09 02:00N 34°25' E 135°14'0 0.0
2017-Dec-09 01:30N 34°25' E 135°14'0 0.0
2017-Dec-09 00:57N 34°25' E 135°14'0 0.0
2017-Dec-09 00:30N 34°25' E 135°14'0 0.9
2017-Dec-09 00:00N 34°25' E 135°14'2 4.0
2017-Dec-08 23:28N 34°23' E 135°13'0 0.1
2017-Dec-08 22:58N 34°23' E 135°13'0 0.0
2017-Dec-08 22:28N 34°23' E 135°13'0 0.0
2017-Dec-08 21:55N 34°23' E 135°13'0 0.0
2017-Dec-08 21:28N 34°23' E 135°13'0 0.0
2017-Dec-08 20:55N 34°23' E 135°13'0 0.0
2017-Dec-08 20:28N 34°23' E 135°13'0 0.0
2017-Dec-08 19:58N 34°23' E 135°13'0 0.0
2017-Dec-08 19:28N 34°23' E 135°13'0 0.0
2017-Dec-08 18:58N 34°23' E 135°13'0 0.0
2017-Dec-08 18:28N 34°23' E 135°13'0 0.1
2017-Dec-08 17:55N 34°23' E 135°13'0 0.0
2017-Dec-08 17:28N 34°23' E 135°13'0 0.0
2017-Dec-08 16:52N 34°23' E 135°13'0 0.0
2017-Dec-08 16:25N 34°23' E 135°13'0 0.1
2017-Dec-08 15:58N 34°23' E 135°13'0 0.0
2017-Dec-08 15:28N 34°23' E 135°13'0 0.0
2017-Dec-08 14:58N 34°23' E 135°13'0 0.0
2017-Dec-08 14:25N 34°23' E 135°13'0 0.1
2017-Dec-08 13:55N 34°23' E 135°13'0 0.0
2017-Dec-08 13:25N 34°23' E 135°13'0 0.1
2017-Dec-08 12:58N 34°23' E 135°13'0 0.0
2017-Dec-08 12:28N 34°23' E 135°13'0 0.0
2017-Dec-08 11:58N 34°23' E 135°13'0 0.0
2017-Dec-08 11:25N 34°23' E 135°13'0 0.0
2017-Dec-08 10:58N 34°23' E 135°13'0 0.0
2017-Dec-08 10:28N 34°23' E 135°13'0 0.0
2017-Dec-08 09:58N 34°23' E 135°13'0 0.1
2017-Dec-08 09:28N 34°23' E 135°13'0 0.1
2017-Dec-08 08:58N 34°23' E 135°13'0 0.1
2017-Dec-08 08:28N 34°23' E 135°13'0 0.0
2017-Dec-08 07:58N 34°23' E 135°13'0 0.0
2017-Dec-08 07:28N 34°23' E 135°13'0 0.0
2017-Dec-08 06:58N 34°23' E 135°13'0 0.0
2017-Dec-08 06:28N 34°23' E 135°13'0 0.0
2017-Dec-08 05:58N 34°23' E 135°13'0 0.0
2017-Dec-08 05:28N 34°23' E 135°13'0 0.0
2017-Dec-08 04:58N 34°23' E 135°13'0 0.0
2017-Dec-08 04:28N 34°23' E 135°13'0 0.0
2017-Dec-08 03:58N 34°23' E 135°13'0 0.0
2017-Dec-08 03:28N 34°23' E 135°13'0 0.0
2017-Dec-08 02:58N 34°23' E 135°13'0 0.0
2017-Dec-08 02:28N 34°23' E 135°13'0 0.0
2017-Dec-08 01:58N 34°23' E 135°13'0 0.0
2017-Dec-08 01:28N 34°23' E 135°13'0 0.0
2017-Dec-08 00:58N 34°23' E 135°13'0 0.0
2017-Dec-08 00:28N 34°23' E 135°13'0 0.0
2017-Dec-07 23:58N 34°23' E 135°13'0 0.0
2017-Dec-07 23:28N 34°23' E 135°13'0 0.1
2017-Dec-07 22:58N 34°23' E 135°13'0 0.0
2017-Dec-07 22:28N 34°23' E 135°13'0 0.0
2017-Dec-07 21:55N 34°23' E 135°13'0 0.0
2017-Dec-07 21:28N 34°23' E 135°13'0 0.1
2017-Dec-07 20:58N 34°23' E 135°13'0 0.0
2017-Dec-07 20:25N 34°23' E 135°13'0 0.0
2017-Dec-07 19:58N 34°23' E 135°13'0 0.0
2017-Dec-07 19:28N 34°23' E 135°13'0 0.7
2017-Dec-07 19:01N 34°23' E 135°12'611.4
2017-Dec-07 18:30N 34°28' E 135°08'612.9
2017-Dec-07 18:01N 34°33' E 135°05'612.5
2017-Dec-07 17:30N 34°37' E 134°58'612.8
2017-Dec-07 17:00N 34°34' E 134°51'612.2
2017-Dec-07 16:30N 34°32' E 134°44'612.0
2017-Dec-07 16:00N 34°29' E 134°38'612.0
2017-Dec-07 15:30N 34°27' E 134°31'911.9
2017-Dec-07 14:43N 34°24' E 134°20'311.7
2017-Dec-07 14:26N 34°24' E 134°16'  
2017-Dec-04 08:45N 34°26' E 134°24'312.8
2017-Dec-04 08:30N 34°27' E 134°27'612.6
2017-Dec-04 08:00N 34°29' E 134°34'612.7
2017-Dec-04 07:30N 34°31' E 134°42'612.6
2017-Dec-04 07:00N 34°34' E 134°49'611.4
2017-Dec-04 06:30N 34°36' E 134°55'510.2
2017-Dec-04 06:00N 34°37' E 135°01'4 8.8
2017-Dec-04 05:30N 34°35' E 135°05'612.1
2017-Dec-04 05:00N 34°29' E 135°08'612.2
2017-Dec-04 04:30N 34°24' E 135°12'2 4.6
2017-Dec-04 04:00N 34°25' E 135°14'0 0.0
2017-Dec-04 03:30N 34°25' E 135°14'0 0.0
2017-Dec-04 03:00N 34°25' E 135°14'0 0.0
2017-Dec-04 02:30N 34°25' E 135°14'0 0.0
2017-Dec-04 02:00N 34°25' E 135°14'0 0.0
2017-Dec-04 01:27N 34°25' E 135°14'0 0.0
2017-Dec-04 00:57N 34°25' E 135°14'0 0.0
2017-Dec-04 00:30N 34°25' E 135°14'0 0.4
2017-Dec-04 00:00N 34°25' E 135°14'3 6.0
2017-Dec-03 23:30N 34°25' E 135°11'611.2
2017-Dec-03 23:00N 34°29' E 135°16'5 9.2
2017-Dec-03 22:30N 34°31' E 135°21'0 0.2
2017-Dec-03 21:59N 34°31' E 135°21'0 0.0
2017-Dec-03 21:29N 34°31' E 135°21'0 0.0
2017-Dec-03 20:59N 34°31' E 135°21'0 0.0
2017-Dec-03 20:29N 34°31' E 135°21'0 0.0
2017-Dec-03 19:59N 34°31' E 135°21'0 0.0
2017-Dec-03 19:29N 34°31' E 135°21'0 0.0
2017-Dec-03 18:59N 34°31' E 135°21'0 0.0
2017-Dec-03 18:29N 34°31' E 135°21'0 0.0
2017-Dec-03 17:59N 34°31' E 135°21'0 0.1
2017-Dec-03 17:29N 34°31' E 135°21'0 0.1
2017-Dec-03 16:59N 34°31' E 135°21'0 0.0
2017-Dec-03 16:29N 34°31' E 135°21'0 0.0
2017-Dec-03 15:59N 34°31' E 135°21'0 0.0
2017-Dec-03 15:29N 34°31' E 135°21'0 0.0
2017-Dec-03 14:59N 34°31' E 135°21'0 0.1
2017-Dec-03 14:29N 34°31' E 135°21'0 0.0
2017-Dec-03 13:59N 34°31' E 135°21'0 0.0
2017-Dec-03 13:29N 34°31' E 135°21'0 0.0
2017-Dec-03 12:59N 34°31' E 135°21'0 0.0
2017-Dec-03 12:29N 34°31' E 135°21'0 0.0
2017-Dec-03 11:59N 34°31' E 135°21'0 0.0
2017-Dec-03 11:29N 34°31' E 135°21'0 0.0
2017-Dec-03 10:59N 34°31' E 135°21'0 0.0
2017-Dec-03 10:29N 34°31' E 135°21'0 0.0
2017-Dec-03 09:59N 34°31' E 135°21'0 0.0
2017-Dec-03 09:29N 34°31' E 135°21'0 0.3
2017-Dec-03 09:00N 34°31' E 135°21'4 8.5
2017-Dec-03 08:30N 34°33' E 135°25'0 0.5
2017-Dec-03 08:00N 34°33' E 135°26'0 0.0
2017-Dec-03 07:30N 34°33' E 135°26'0 0.0
2017-Dec-03 07:00N 34°33' E 135°26'0 0.0
2017-Dec-03 06:30N 34°33' E 135°26'0 0.0
2017-Dec-03 06:00N 34°33' E 135°26'0 0.0
2017-Dec-03 05:30N 34°33' E 135°26'0 0.0
2017-Dec-03 05:00N 34°33' E 135°26'0 0.0
2017-Dec-03 04:30N 34°33' E 135°26'0 0.0
2017-Dec-03 04:00N 34°33' E 135°26'0 0.0
2017-Dec-03 03:30N 34°33' E 135°26'0 0.0
2017-Dec-03 03:00N 34°33' E 135°26'0 0.0
2017-Dec-03 02:30N 34°33' E 135°26'0 0.0
2017-Dec-03 02:00N 34°33' E 135°26'0 0.0
2017-Dec-03 01:30N 34°33' E 135°26'0 0.0
2017-Dec-03 01:00N 34°33' E 135°26'0 0.0
2017-Dec-03 00:30N 34°33' E 135°26'0 0.0
2017-Dec-03 00:00N 34°33' E 135°26'0 0.0
2017-Dec-02 23:30N 34°33' E 135°26'0 0.0
2017-Dec-02 23:00N 34°33' E 135°26'3 5.4
2017-Dec-02 22:30N 34°33' E 135°22'2 3.6
2017-Dec-02 21:58N 34°31' E 135°21'0 0.0
2017-Dec-02 21:29N 34°31' E 135°21'0 0.0
2017-Dec-02 20:59N 34°31' E 135°21'0 0.0
2017-Dec-02 20:29N 34°31' E 135°21'0 0.0
2017-Dec-02 19:59N 34°31' E 135°21'0 0.0
2017-Dec-02 19:29N 34°31' E 135°21'0 0.0
2017-Dec-02 18:59N 34°31' E 135°21'0 0.0
2017-Dec-02 18:29N 34°31' E 135°21'0 0.1
2017-Dec-02 17:59N 34°31' E 135°21'0 0.0
2017-Dec-02 17:28N 34°31' E 135°21'0 0.0
2017-Dec-02 16:59N 34°31' E 135°21'0 0.0
2017-Dec-02 16:29N 34°31' E 135°21'0 0.0
2017-Dec-02 15:59N 34°31' E 135°21'0 0.0
2017-Dec-02 15:28N 34°31' E 135°21'0 0.0
2017-Dec-02 14:59N 34°31' E 135°21'0 0.0
2017-Dec-02 14:29N 34°31' E 135°21'0 0.0
2017-Dec-02 13:59N 34°31' E 135°21'0 0.0
2017-Dec-02 13:29N 34°31' E 135°21'0 0.0
2017-Dec-02 12:59N 34°31' E 135°21'0 0.0
2017-Dec-02 12:26N 34°31' E 135°21'0 0.1
2017-Dec-02 11:58N 34°31' E 135°21'0 0.0
2017-Dec-02 11:28N 34°31' E 135°21'0 0.0
2017-Dec-02 10:59N 34°31' E 135°21'0 0.0
2017-Dec-02 10:29N 34°31' E 135°21'0 0.3
2017-Dec-02 10:01N 34°31' E 135°21'611.8
2017-Dec-02 09:30N 34°28' E 135°15'4 8.6
2017-Dec-02 09:00N 34°24' E 135°13'2 3.4
2017-Dec-02 08:30N 34°25' E 135°14'0 0.0
2017-Dec-02 07:57N 34°25' E 135°14'0 0.0
2017-Dec-02 07:30N 34°25' E 135°14'0 0.0
2017-Dec-02 07:00N 34°25' E 135°14'0 0.0
2017-Dec-02 06:30N 34°25' E 135°14'0 0.0
2017-Dec-02 05:57N 34°25' E 135°14'0 0.0
2017-Dec-02 05:30N 34°25' E 135°14'0 0.0
2017-Dec-02 04:57N 34°25' E 135°14'1 1.3
2017-Dec-02 04:30N 34°25' E 135°14'2 3.5
2017-Dec-02 04:00N 34°23' E 135°13'0 0.0
2017-Dec-02 03:30N 34°23' E 135°13'0 0.0
2017-Dec-02 03:00N 34°23' E 135°13'0 0.0
2017-Dec-02 02:30N 34°23' E 135°13'0 0.0
2017-Dec-02 02:00N 34°23' E 135°13'0 0.0
2017-Dec-02 01:30N 34°23' E 135°13'0 0.0
2017-Dec-02 01:00N 34°23' E 135°13'0 0.0
2017-Dec-02 00:30N 34°23' E 135°13'0 0.1
2017-Dec-02 00:00N 34°23' E 135°13'0 0.0
2017-Dec-01 23:27N 34°23' E 135°13'0 0.0
2017-Dec-01 23:00N 34°23' E 135°13'0 0.0
2017-Dec-01 22:27N 34°23' E 135°13'0 0.0
2017-Dec-01 22:00N 34°23' E 135°13'0 0.0
2017-Dec-01 21:30N 34°23' E 135°13'0 0.0
2017-Dec-01 21:00N 34°23' E 135°13'0 0.0
2017-Dec-01 20:30N 34°23' E 135°13'0 0.0
2017-Dec-01 20:00N 34°23' E 135°13'0 0.0
2017-Dec-01 19:30N 34°23' E 135°13'0 0.0
2017-Dec-01 19:00N 34°23' E 135°13'0 0.0
2017-Dec-01 18:27N 34°23' E 135°13'0 0.0
2017-Dec-01 17:57N 34°23' E 135°13'0 0.0
2017-Dec-01 17:30N 34°23' E 135°13'0 0.1
2017-Dec-01 17:00N 34°23' E 135°13'0 0.0
2017-Dec-01 16:30N 34°23' E 135°13'0 0.0
2017-Dec-01 16:00N 34°23' E 135°13'0 0.0
2017-Dec-01 15:30N 34°23' E 135°13'0 0.0
2017-Dec-01 15:00N 34°23' E 135°13'0 0.0
2017-Dec-01 14:30N 34°23' E 135°13'0 0.0
2017-Dec-01 14:00N 34°23' E 135°13'0 0.0
2017-Dec-01 13:30N 34°23' E 135°13'0 0.0
2017-Dec-01 13:00N 34°23' E 135°13'1 2.3
2017-Dec-01 12:30N 34°24' E 135°12'611.9
2017-Dec-01 12:00N 34°29' E 135°07'612.0
2017-Dec-01 11:30N 34°34' E 135°04'5 9.8
2017-Dec-01 11:00N 34°37' E 134°59'510.9
2017-Dec-01 10:30N 34°34' E 134°53'510.4
2017-Dec-01 10:00N 34°32' E 134°48'611.2
2017-Dec-01 09:30N 34°29' E 134°41'  

Dump ship's entire track history